Time,TemperatureF,DewpointF,PressureIn,WindDirection,WindDirectionDegrees,WindSpeedMPH,WindSpeedGustMPH,Humidity,HourlyPrecipIn,Conditions,Clouds,dailyrainin,SolarRadiationWatts/m^2,SoftwareType,DateUTC
2013-08-28 13:00:00,81.0,74.0,-100.00,WSW,247,5.0,-999.0,77,-99.99,,,-99.99,339.880005,,2013-08-28 17:00:00,
2013-08-28 13:44:00,81.0,74.0,-100.00,WSW,247,5.0,-999.0,77,-99.99,,,-99.99,339.880005,,2013-08-28 17:44:00,
2013-08-28 13:52:00,81.0,74.0,-100.00,WSW,247,5.0,-999.0,77,-99.99,,,-99.99,339.880005,,2013-08-28 17:52:00,
2013-08-28 14:00:00,83.0,74.0,-100.00,WNW,292,5.0,-999.0,73,-99.99,,,-99.99,411.799988,,2013-08-28 18:00:00,
2013-08-28 14:42:00,83.0,74.0,-100.00,WNW,292,5.0,-999.0,73,-99.99,,,-99.99,411.799988,,2013-08-28 18:42:00,
2013-08-28 14:53:00,83.0,74.0,-100.00,WNW,292,5.0,-999.0,73,-99.99,,,-99.99,411.799988,,2013-08-28 18:53:00,
2013-08-28 15:00:00,86.0,73.0,-100.00,SE,135,7.0,-999.0,66,-99.99,,,-99.99,433.839996,,2013-08-28 19:00:00,
2013-08-28 15:42:00,86.0,73.0,-100.00,SE,135,7.0,-999.0,66,-99.99,,,-99.99,433.839996,,2013-08-28 19:42:00,
2013-08-28 15:52:00,86.0,73.0,-100.00,SE,135,7.0,-999.0,66,-99.99,,,-99.99,433.839996,,2013-08-28 19:52:00,
2013-08-28 16:00:00,85.0,73.0,-100.00,SE,135,9.0,-999.0,68,-99.99,,,-99.99,430.359985,,2013-08-28 20:00:00,
2013-08-28 16:43:00,85.0,73.0,-100.00,SE,135,9.0,-999.0,68,-99.99,,,-99.99,430.359985,,2013-08-28 20:43:00,
2013-08-28 16:52:00,85.0,73.0,-100.00,SE,135,9.0,-999.0,68,-99.99,,,-99.99,430.359985,,2013-08-28 20:52:00,
2013-08-28 17:00:00,85.0,72.0,-100.00,NE,45,8.0,-999.0,65,-99.99,,,-99.99,460.519989,,2013-08-28 21:00:00,
2013-08-28 17:44:00,85.0,72.0,-100.00,NE,45,8.0,-999.0,65,-99.99,,,-99.99,460.519989,,2013-08-28 21:44:00,
2013-08-28 17:58:00,85.0,72.0,-100.00,NE,45,8.0,-999.0,65,-99.99,,,-99.99,460.519989,,2013-08-28 21:58:00,
2013-08-28 18:00:00,83.0,72.0,-100.00,ENE,67,9.0,-999.0,68,-99.99,,,-99.99,302.760010,,2013-08-28 22:00:00,
2013-08-28 18:43:00,83.0,72.0,-100.00,ENE,67,9.0,-999.0,68,-99.99,,,-99.99,302.760010,,2013-08-28 22:43:00,
2013-08-28 18:54:00,83.0,72.0,-100.00,ENE,67,9.0,-999.0,68,-99.99,,,-99.99,302.760010,,2013-08-28 22:54:00,
2013-08-28 19:00:00,81.0,70.0,-100.00,NNE,22,9.0,-999.0,69,-99.99,,,-99.99,136.880005,,2013-08-28 23:00:00,
2013-08-28 19:42:00,81.0,70.0,-100.00,NNE,22,9.0,-999.0,69,-99.99,,,-99.99,136.880005,,2013-08-28 23:42:00,
2013-08-28 19:53:00,81.0,70.0,-100.00,NNE,22,9.0,-999.0,69,-99.99,,,-99.99,136.880005,,2013-08-28 23:53:00,
2013-08-28 20:00:00,79.0,70.0,-100.00,NNE,22,7.0,-999.0,73,-99.99,,,-99.99,33.639999,,2013-08-29 00:00:00,
2013-08-28 21:00:00,76.0,70.0,-100.00,NNE,22,4.0,-999.0,83,-99.99,,,-99.99,3.480000,,2013-08-29 01:00:00,
2013-08-28 21:42:00,76.0,70.0,-100.00,NNE,22,4.0,-999.0,83,-99.99,,,-99.99,3.480000,,2013-08-29 01:42:00,
2013-08-28 21:52:00,76.0,70.0,-100.00,NNE,22,4.0,-999.0,83,-99.99,,,-99.99,3.480000,,2013-08-29 01:52:00,
2013-08-28 22:00:00,73.0,70.0,-100.00,NNE,22,4.0,-999.0,89,-99.99,,,-99.99,0.000000,,2013-08-29 02:00:00,
2013-08-28 22:52:00,73.0,70.0,-100.00,NNE,22,4.0,-999.0,89,-99.99,,,-99.99,0.000000,,2013-08-29 02:52:00,
2013-08-28 23:00:00,72.0,69.0,-100.00,NNE,22,2.0,-999.0,93,-99.99,,,-99.99,0.000000,,2013-08-29 03:00:00,
2013-08-28 23:45:00,72.0,69.0,-100.00,NNE,22,2.0,-999.0,93,-99.99,,,-99.99,0.000000,,2013-08-29 03:45:00,
2013-08-28 23:57:00,72.0,69.0,-100.00,NNE,22,2.0,-999.0,93,-99.99,,,-99.99,0.000000,,2013-08-29 03:57:00,